sensor_id;sensor_type;location;lat;lon;timestamp;P1;durP1;ratioP1;P2;durP2;ratioP2
20474;SDS011;10396;51.724;23.090;2022-08-19T00:00:22;17.70;;;10.60;;
20474;SDS011;10396;51.724;23.090;2022-08-19T00:03:02;19.20;;;11.50;;
20474;SDS011;10396;51.724;23.090;2022-08-19T00:05:30;16.02;;;11.25;;
20474;SDS011;10396;51.724;23.090;2022-08-19T00:07:58;14.75;;;10.57;;
20474;SDS011;10396;51.724;23.090;2022-08-19T00:10:26;17.13;;;11.43;;
20474;SDS011;10396;51.724;23.090;2022-08-19T00:12:55;17.20;;;11.00;;
20474;SDS011;10396;51.724;23.090;2022-08-19T00:15:22;19.50;;;10.98;;
20474;SDS011;10396;51.724;23.090;2022-08-19T00:17:50;17.80;;;11.00;;
20474;SDS011;10396;51.724;23.090;2022-08-19T00:20:18;19.88;;;11.75;;
20474;SDS011;10396;51.724;23.090;2022-08-19T00:22:48;18.65;;;11.43;;
20474;SDS011;10396;51.724;23.090;2022-08-19T00:25:16;18.80;;;11.00;;
20474;SDS011;10396;51.724;23.090;2022-08-19T00:27:44;18.80;;;10.82;;
20474;SDS011;10396;51.724;23.090;2022-08-19T00:30:14;16.02;;;10.35;;
20474;SDS011;10396;51.724;23.090;2022-08-19T00:32:45;20.42;;;11.10;;
20474;SDS011;10396;51.724;23.090;2022-08-19T00:35:12;16.77;;;11.05;;
20474;SDS011;10396;51.724;23.090;2022-08-19T00:37:40;16.00;;;11.07;;
20474;SDS011;10396;51.724;23.090;2022-08-19T00:40:10;23.73;;;12.65;;
20474;SDS011;10396;51.724;23.090;2022-08-19T00:42:39;14.98;;;10.55;;
20474;SDS011;10396;51.724;23.090;2022-08-19T00:45:11;18.42;;;11.93;;
20474;SDS011;10396;51.724;23.090;2022-08-19T00:50:11;20.83;;;11.30;;
20474;SDS011;10396;51.724;23.090;2022-08-19T00:52:42;18.63;;;11.20;;
20474;SDS011;10396;51.724;23.090;2022-08-19T00:55:12;18.08;;;11.57;;
20474;SDS011;10396;51.724;23.090;2022-08-19T00:57:42;20.17;;;11.23;;
20474;SDS011;10396;51.724;23.090;2022-08-19T01:00:15;15.60;;;11.13;;
20474;SDS011;10396;51.724;23.090;2022-08-19T01:02:45;19.25;;;11.05;;
20474;SDS011;10396;51.724;23.090;2022-08-19T01:05:14;16.58;;;11.05;;
20474;SDS011;10396;51.724;23.090;2022-08-19T01:07:46;17.52;;;11.25;;
20474;SDS011;10396;51.724;23.090;2022-08-19T01:10:16;18.63;;;13.05;;
20474;SDS011;10396;51.724;23.090;2022-08-19T01:12:45;16.02;;;11.25;;
20474;SDS011;10396;51.724;23.090;2022-08-19T01:15:14;16.85;;;11.32;;
20474;SDS011;10396;51.724;23.090;2022-08-19T01:17:43;17.23;;;11.23;;
20474;SDS011;10396;51.724;23.090;2022-08-19T01:20:14;18.80;;;11.00;;
20474;SDS011;10396;51.724;23.090;2022-08-19T01:22:45;16.23;;;11.18;;
20474;SDS011;10396;51.724;23.090;2022-08-19T01:25:14;18.67;;;10.90;;
20474;SDS011;10396;51.724;23.090;2022-08-19T01:27:44;18.27;;;11.25;;
20474;SDS011;10396;51.724;23.090;2022-08-19T01:30:15;18.80;;;11.38;;
20474;SDS011;10396;51.724;23.090;2022-08-19T01:32:44;17.75;;;12.10;;
20474;SDS011;10396;51.724;23.090;2022-08-19T01:35:12;20.35;;;11.95;;
20474;SDS011;10396;51.724;23.090;2022-08-19T01:37:44;16.25;;;11.30;;
20474;SDS011;10396;51.724;23.090;2022-08-19T01:40:13;18.33;;;11.38;;
20474;SDS011;10396;51.724;23.090;2022-08-19T01:42:41;15.40;;;10.93;;
20474;SDS011;10396;51.724;23.090;2022-08-19T01:45:09;24.20;;;11.65;;
20474;SDS011;10396;51.724;23.090;2022-08-19T01:47:37;18.42;;;11.25;;
20474;SDS011;10396;51.724;23.090;2022-08-19T01:50:05;19.42;;;11.48;;
20474;SDS011;10396;51.724;23.090;2022-08-19T01:52:35;19.65;;;11.45;;
20474;SDS011;10396;51.724;23.090;2022-08-19T01:55:05;19.63;;;11.75;;
20474;SDS011;10396;51.724;23.090;2022-08-19T01:57:36;16.08;;;11.38;;
20474;SDS011;10396;51.724;23.090;2022-08-19T02:00:06;16.17;;;11.48;;
20474;SDS011;10396;51.724;23.090;2022-08-19T02:02:36;16.27;;;10.90;;
20474;SDS011;10396;51.724;23.090;2022-08-19T02:05:04;18.83;;;11.10;;
20474;SDS011;10396;51.724;23.090;2022-08-19T02:07:32;17.33;;;11.38;;
20474;SDS011;10396;51.724;23.090;2022-08-19T02:10:01;18.70;;;11.13;;
20474;SDS011;10396;51.724;23.090;2022-08-19T02:12:30;19.63;;;11.73;;
20474;SDS011;10396;51.724;23.090;2022-08-19T02:14:58;16.80;;;10.80;;
20474;SDS011;10396;51.724;23.090;2022-08-19T02:17:26;17.95;;;11.68;;
20474;SDS011;10396;51.724;23.090;2022-08-19T02:19:54;15.55;;;10.88;;
20474;SDS011;10396;51.724;23.090;2022-08-19T02:22:22;20.95;;;11.55;;
20474;SDS011;10396;51.724;23.090;2022-08-19T02:24:51;17.83;;;10.85;;
20474;SDS011;10396;51.724;23.090;2022-08-19T02:27:18;16.02;;;11.77;;
20474;SDS011;10396;51.724;23.090;2022-08-19T02:29:48;17.65;;;11.40;;
20474;SDS011;10396;51.724;23.090;2022-08-19T02:32:16;18.75;;;11.32;;
20474;SDS011;10396;51.724;23.090;2022-08-19T02:34:44;21.05;;;11.65;;
20474;SDS011;10396;51.724;23.090;2022-08-19T02:37:12;17.02;;;11.90;;
20474;SDS011;10396;51.724;23.090;2022-08-19T02:39:53;19.77;;;12.02;;
20474;SDS011;10396;51.724;23.090;2022-08-19T02:42:21;16.95;;;11.55;;
20474;SDS011;10396;51.724;23.090;2022-08-19T02:44:50;17.55;;;11.57;;
20474;SDS011;10396;51.724;23.090;2022-08-19T02:47:18;18.13;;;11.40;;
20474;SDS011;10396;51.724;23.090;2022-08-19T02:49:46;17.98;;;11.73;;
20474;SDS011;10396;51.724;23.090;2022-08-19T02:52:15;16.83;;;11.43;;
20474;SDS011;10396;51.724;23.090;2022-08-19T02:54:42;20.00;;;11.75;;
20474;SDS011;10396;51.724;23.090;2022-08-19T02:57:10;16.38;;;11.10;;
20474;SDS011;10396;51.724;23.090;2022-08-19T02:59:38;21.15;;;11.60;;
20474;SDS011;10396;51.724;23.090;2022-08-19T03:02:06;20.35;;;11.68;;
20474;SDS011;10396;51.724;23.090;2022-08-19T03:04:34;18.48;;;11.55;;
20474;SDS011;10396;51.724;23.090;2022-08-19T03:07:02;18.42;;;11.05;;
20474;SDS011;10396;51.724;23.090;2022-08-19T03:09:29;16.52;;;11.32;;
20474;SDS011;10396;51.724;23.090;2022-08-19T03:11:57;16.02;;;11.02;;
20474;SDS011;10396;51.724;23.090;2022-08-19T03:14:24;19.40;;;11.60;;
20474;SDS011;10396;51.724;23.090;2022-08-19T03:16:53;17.42;;;11.10;;
20474;SDS011;10396;51.724;23.090;2022-08-19T03:19:22;17.40;;;11.07;;
20474;SDS011;10396;51.724;23.090;2022-08-19T03:21:51;18.20;;;11.48;;
20474;SDS011;10396;51.724;23.090;2022-08-19T03:24:19;15.85;;;11.02;;
20474;SDS011;10396;51.724;23.090;2022-08-19T03:26:47;17.42;;;10.95;;
20474;SDS011;10396;51.724;23.090;2022-08-19T03:29:16;17.15;;;10.52;;
20474;SDS011;10396;51.724;23.090;2022-08-19T03:31:44;21.88;;;10.95;;
20474;SDS011;10396;51.724;23.090;2022-08-19T03:34:13;16.58;;;10.77;;
20474;SDS011;10396;51.724;23.090;2022-08-19T03:36:44;21.08;;;11.10;;
20474;SDS011;10396;51.724;23.090;2022-08-19T03:39:12;21.63;;;10.95;;
20474;SDS011;10396;51.724;23.090;2022-08-19T03:41:41;18.85;;;11.15;;
20474;SDS011;10396;51.724;23.090;2022-08-19T03:44:09;21.77;;;11.57;;
20474;SDS011;10396;51.724;23.090;2022-08-19T03:46:37;17.45;;;10.88;;
20474;SDS011;10396;51.724;23.090;2022-08-19T03:49:05;18.23;;;10.82;;
20474;SDS011;10396;51.724;23.090;2022-08-19T03:51:34;20.08;;;10.98;;
20474;SDS011;10396;51.724;23.090;2022-08-19T03:54:06;17.65;;;11.13;;
20474;SDS011;10396;51.724;23.090;2022-08-19T03:56:35;17.33;;;10.88;;
20474;SDS011;10396;51.724;23.090;2022-08-19T03:59:04;19.60;;;11.02;;
20474;SDS011;10396;51.724;23.090;2022-08-19T04:01:32;15.93;;;10.55;;
20474;SDS011;10396;51.724;23.090;2022-08-19T04:04:00;17.60;;;10.57;;
20474;SDS011;10396;51.724;23.090;2022-08-19T04:06:28;18.15;;;10.77;;
20474;SDS011;10396;51.724;23.090;2022-08-19T04:08:57;17.63;;;10.70;;
20474;SDS011;10396;51.724;23.090;2022-08-19T04:11:29;16.42;;;10.38;;
20474;SDS011;10396;51.724;23.090;2022-08-19T04:13:59;17.67;;;10.30;;
20474;SDS011;10396;51.724;23.090;2022-08-19T04:16:27;15.23;;;10.35;;
20474;SDS011;10396;51.724;23.090;2022-08-19T04:18:55;16.55;;;10.32;;
20474;SDS011;10396;51.724;23.090;2022-08-19T04:21:23;14.63;;;10.52;;
20474;SDS011;10396;51.724;23.090;2022-08-19T04:23:52;18.33;;;10.85;;
20474;SDS011;10396;51.724;23.090;2022-08-19T04:26:21;17.65;;;11.05;;
20474;SDS011;10396;51.724;23.090;2022-08-19T04:28:51;22.60;;;10.88;;
20474;SDS011;10396;51.724;23.090;2022-08-19T04:31:20;19.58;;;10.75;;
20474;SDS011;10396;51.724;23.090;2022-08-19T04:33:51;16.17;;;11.10;;
20474;SDS011;10396;51.724;23.090;2022-08-19T04:36:20;15.45;;;10.10;;
20474;SDS011;10396;51.724;23.090;2022-08-19T04:38:49;16.48;;;10.45;;
20474;SDS011;10396;51.724;23.090;2022-08-19T04:41:17;15.93;;;10.15;;
20474;SDS011;10396;51.724;23.090;2022-08-19T04:44:03;15.48;;;10.13;;
20474;SDS011;10396;51.724;23.090;2022-08-19T04:46:31;14.15;;;10.00;;
20474;SDS011;10396;51.724;23.090;2022-08-19T04:48:59;18.88;;;10.43;;
20474;SDS011;10396;51.724;23.090;2022-08-19T04:51:27;16.05;;;10.35;;
20474;SDS011;10396;51.724;23.090;2022-08-19T04:53:57;15.13;;;10.27;;
20474;SDS011;10396;51.724;23.090;2022-08-19T04:56:25;16.83;;;10.35;;
20474;SDS011;10396;51.724;23.090;2022-08-19T04:58:53;17.17;;;10.02;;
20474;SDS011;10396;51.724;23.090;2022-08-19T05:01:23;17.10;;;10.43;;
20474;SDS011;10396;51.724;23.090;2022-08-19T05:03:53;17.38;;;10.32;;
20474;SDS011;10396;51.724;23.090;2022-08-19T05:06:22;17.38;;;9.93;;
20474;SDS011;10396;51.724;23.090;2022-08-19T05:08:51;16.42;;;9.77;;
20474;SDS011;10396;51.724;23.090;2022-08-19T05:11:20;15.60;;;10.40;;
20474;SDS011;10396;51.724;23.090;2022-08-19T05:13:50;36.05;;;27.45;;
20474;SDS011;10396;51.724;23.090;2022-08-19T05:16:18;46.75;;;33.20;;
20474;SDS011;10396;51.724;23.090;2022-08-19T05:18:48;24.13;;;16.30;;
20474;SDS011;10396;51.724;23.090;2022-08-19T05:21:34;21.17;;;9.85;;
20474;SDS011;10396;51.724;23.090;2022-08-19T05:24:19;14.25;;;9.52;;
20474;SDS011;10396;51.724;23.090;2022-08-19T05:26:48;14.95;;;9.65;;
20474;SDS011;10396;51.724;23.090;2022-08-19T05:29:18;16.00;;;9.70;;
20474;SDS011;10396;51.724;23.090;2022-08-19T05:31:46;17.17;;;9.43;;
20474;SDS011;10396;51.724;23.090;2022-08-19T05:34:16;13.93;;;8.70;;
20474;SDS011;10396;51.724;23.090;2022-08-19T05:36:47;14.82;;;9.27;;
20474;SDS011;10396;51.724;23.090;2022-08-19T05:39:17;14.60;;;8.50;;
20474;SDS011;10396;51.724;23.090;2022-08-19T05:41:47;16.00;;;9.20;;
20474;SDS011;10396;51.724;23.090;2022-08-19T05:44:15;14.63;;;8.73;;
20474;SDS011;10396;51.724;23.090;2022-08-19T05:46:44;15.32;;;8.77;;
20474;SDS011;10396;51.724;23.090;2022-08-19T05:49:13;14.95;;;8.75;;
20474;SDS011;10396;51.724;23.090;2022-08-19T05:51:42;17.50;;;8.48;;
20474;SDS011;10396;51.724;23.090;2022-08-19T05:54:10;16.05;;;9.00;;
20474;SDS011;10396;51.724;23.090;2022-08-19T05:56:38;15.77;;;9.10;;
20474;SDS011;10396;51.724;23.090;2022-08-19T05:59:07;15.70;;;8.52;;
20474;SDS011;10396;51.724;23.090;2022-08-19T06:01:37;14.45;;;8.70;;
20474;SDS011;10396;51.724;23.090;2022-08-19T06:04:05;15.40;;;8.30;;
20474;SDS011;10396;51.724;23.090;2022-08-19T06:06:33;13.18;;;8.45;;
20474;SDS011;10396;51.724;23.090;2022-08-19T06:09:03;15.38;;;8.50;;
20474;SDS011;10396;51.724;23.090;2022-08-19T06:11:32;14.93;;;8.40;;
20474;SDS011;10396;51.724;23.090;2022-08-19T06:14:02;14.55;;;8.20;;
20474;SDS011;10396;51.724;23.090;2022-08-19T06:16:33;18.77;;;8.07;;
20474;SDS011;10396;51.724;23.090;2022-08-19T06:19:02;14.77;;;8.73;;
20474;SDS011;10396;51.724;23.090;2022-08-19T06:21:32;19.85;;;8.43;;
20474;SDS011;10396;51.724;23.090;2022-08-19T06:24:00;15.02;;;8.30;;
20474;SDS011;10396;51.724;23.090;2022-08-19T06:26:30;25.45;;;8.88;;
20474;SDS011;10396;51.724;23.090;2022-08-19T06:28:58;16.58;;;8.45;;
20474;SDS011;10396;51.724;23.090;2022-08-19T06:31:26;16.63;;;8.70;;
20474;SDS011;10396;51.724;23.090;2022-08-19T06:33:54;14.35;;;7.93;;
20474;SDS011;10396;51.724;23.090;2022-08-19T06:36:24;14.15;;;7.95;;
20474;SDS011;10396;51.724;23.090;2022-08-19T06:38:57;15.57;;;8.17;;
20474;SDS011;10396;51.724;23.090;2022-08-19T06:41:25;14.70;;;8.10;;
20474;SDS011;10396;51.724;23.090;2022-08-19T06:43:54;14.25;;;7.70;;
20474;SDS011;10396;51.724;23.090;2022-08-19T06:46:22;17.35;;;7.82;;
20474;SDS011;10396;51.724;23.090;2022-08-19T06:48:50;14.52;;;8.40;;
20474;SDS011;10396;51.724;23.090;2022-08-19T06:51:18;14.15;;;7.93;;
20474;SDS011;10396;51.724;23.090;2022-08-19T06:53:47;12.88;;;7.93;;
20474;SDS011;10396;51.724;23.090;2022-08-19T06:56:15;13.43;;;7.82;;
20474;SDS011;10396;51.724;23.090;2022-08-19T06:58:44;19.80;;;7.78;;
20474;SDS011;10396;51.724;23.090;2022-08-19T07:01:13;15.48;;;7.93;;
20474;SDS011;10396;51.724;23.090;2022-08-19T07:03:41;14.45;;;7.55;;
20474;SDS011;10396;51.724;23.090;2022-08-19T07:06:10;17.60;;;7.80;;
20474;SDS011;10396;51.724;23.090;2022-08-19T07:08:40;12.90;;;7.70;;
20474;SDS011;10396;51.724;23.090;2022-08-19T07:11:09;13.88;;;7.40;;
20474;SDS011;10396;51.724;23.090;2022-08-19T07:13:38;11.60;;;7.60;;
20474;SDS011;10396;51.724;23.090;2022-08-19T07:16:09;13.68;;;8.10;;
20474;SDS011;10396;51.724;23.090;2022-08-19T07:18:40;15.07;;;7.68;;
20474;SDS011;10396;51.724;23.090;2022-08-19T07:21:08;15.15;;;7.90;;
20474;SDS011;10396;51.724;23.090;2022-08-19T07:23:37;16.65;;;7.22;;
20474;SDS011;10396;51.724;23.090;2022-08-19T07:26:05;13.00;;;7.20;;
20474;SDS011;10396;51.724;23.090;2022-08-19T07:28:33;12.70;;;6.90;;
20474;SDS011;10396;51.724;23.090;2022-08-19T07:31:05;15.43;;;7.13;;
20474;SDS011;10396;51.724;23.090;2022-08-19T07:33:33;18.38;;;6.97;;
20474;SDS011;10396;51.724;23.090;2022-08-19T07:36:04;12.57;;;6.70;;
20474;SDS011;10396;51.724;23.090;2022-08-19T07:38:32;13.73;;;7.18;;
20474;SDS011;10396;51.724;23.090;2022-08-19T07:41:00;13.07;;;7.00;;
20474;SDS011;10396;51.724;23.090;2022-08-19T07:43:28;11.32;;;6.57;;
20474;SDS011;10396;51.724;23.090;2022-08-19T07:45:56;14.02;;;6.85;;
20474;SDS011;10396;51.724;23.090;2022-08-19T07:48:24;15.43;;;6.82;;
20474;SDS011;10396;51.724;23.090;2022-08-19T07:50:52;12.88;;;6.70;;
20474;SDS011;10396;51.724;23.090;2022-08-19T07:53:21;11.75;;;6.93;;
20474;SDS011;10396;51.724;23.090;2022-08-19T07:55:49;13.07;;;6.65;;
20474;SDS011;10396;51.724;23.090;2022-08-19T07:58:18;13.27;;;6.65;;
20474;SDS011;10396;51.724;23.090;2022-08-19T08:00:49;13.65;;;7.00;;
20474;SDS011;10396;51.724;23.090;2022-08-19T08:03:18;13.65;;;6.55;;
20474;SDS011;10396;51.724;23.090;2022-08-19T08:06:07;11.48;;;6.13;;
20474;SDS011;10396;51.724;23.090;2022-08-19T08:08:53;13.70;;;6.57;;
20474;SDS011;10396;51.724;23.090;2022-08-19T08:11:43;17.85;;;6.65;;
20474;SDS011;10396;51.724;23.090;2022-08-19T08:14:14;13.75;;;6.53;;
20474;SDS011;10396;51.724;23.090;2022-08-19T08:16:43;10.82;;;5.75;;
20474;SDS011;10396;51.724;23.090;2022-08-19T08:19:11;13.75;;;5.72;;
20474;SDS011;10396;51.724;23.090;2022-08-19T08:21:40;14.55;;;5.55;;
20474;SDS011;10396;51.724;23.090;2022-08-19T08:24:09;12.43;;;5.93;;
20474;SDS011;10396;51.724;23.090;2022-08-19T08:26:38;11.15;;;5.57;;
20474;SDS011;10396;51.724;23.090;2022-08-19T08:29:06;15.75;;;5.90;;
20474;SDS011;10396;51.724;23.090;2022-08-19T08:31:36;11.50;;;5.25;;
20474;SDS011;10396;51.724;23.090;2022-08-19T08:34:04;13.50;;;5.95;;
20474;SDS011;10396;51.724;23.090;2022-08-19T08:36:32;11.45;;;5.60;;
20474;SDS011;10396;51.724;23.090;2022-08-19T08:39:00;15.40;;;5.25;;
20474;SDS011;10396;51.724;23.090;2022-08-19T08:41:31;14.35;;;5.40;;
20474;SDS011;10396;51.724;23.090;2022-08-19T08:44:02;11.15;;;5.40;;
20474;SDS011;10396;51.724;23.090;2022-08-19T08:46:34;11.98;;;4.95;;
20474;SDS011;10396;51.724;23.090;2022-08-19T08:49:20;12.98;;;5.50;;
20474;SDS011;10396;51.724;23.090;2022-08-19T08:51:54;15.88;;;5.40;;
20474;SDS011;10396;51.724;23.090;2022-08-19T08:54:28;17.77;;;5.55;;
20474;SDS011;10396;51.724;23.090;2022-08-19T08:57:03;11.93;;;5.13;;
20474;SDS011;10396;51.724;23.090;2022-08-19T08:59:34;10.35;;;4.85;;
20474;SDS011;10396;51.724;23.090;2022-08-19T09:02:04;13.15;;;5.00;;
20474;SDS011;10396;51.724;23.090;2022-08-19T09:04:31;9.95;;;4.75;;
20474;SDS011;10396;51.724;23.090;2022-08-19T09:07:04;11.38;;;4.88;;
20474;SDS011;10396;51.724;23.090;2022-08-19T09:09:43;12.45;;;4.90;;
20474;SDS011;10396;51.724;23.090;2022-08-19T09:12:16;11.23;;;4.72;;
20474;SDS011;10396;51.724;23.090;2022-08-19T09:14:47;11.45;;;4.93;;
20474;SDS011;10396;51.724;23.090;2022-08-19T09:17:17;10.65;;;5.45;;
20474;SDS011;10396;51.724;23.090;2022-08-19T09:19:49;13.10;;;4.80;;
20474;SDS011;10396;51.724;23.090;2022-08-19T09:22:19;9.88;;;4.60;;
20474;SDS011;10396;51.724;23.090;2022-08-19T09:24:48;13.57;;;4.60;;
20474;SDS011;10396;51.724;23.090;2022-08-19T09:27:19;11.02;;;4.65;;
20474;SDS011;10396;51.724;23.090;2022-08-19T09:29:49;11.45;;;4.45;;
20474;SDS011;10396;51.724;23.090;2022-08-19T09:32:17;9.60;;;4.65;;
20474;SDS011;10396;51.724;23.090;2022-08-19T09:34:44;10.02;;;4.50;;
20474;SDS011;10396;51.724;23.090;2022-08-19T09:37:12;11.75;;;4.05;;
20474;SDS011;10396;51.724;23.090;2022-08-19T09:39:40;10.45;;;4.45;;
20474;SDS011;10396;51.724;23.090;2022-08-19T09:42:08;8.25;;;4.10;;
20474;SDS011;10396;51.724;23.090;2022-08-19T09:44:39;8.93;;;4.50;;
20474;SDS011;10396;51.724;23.090;2022-08-19T09:47:08;10.43;;;4.75;;
20474;SDS011;10396;51.724;23.090;2022-08-19T09:49:36;12.10;;;4.55;;
20474;SDS011;10396;51.724;23.090;2022-08-19T09:52:05;10.82;;;4.35;;
20474;SDS011;10396;51.724;23.090;2022-08-19T09:54:33;11.18;;;4.40;;
20474;SDS011;10396;51.724;23.090;2022-08-19T09:57:00;12.88;;;4.50;;
20474;SDS011;10396;51.724;23.090;2022-08-19T09:59:28;11.25;;;4.30;;
20474;SDS011;10396;51.724;23.090;2022-08-19T10:01:57;13.13;;;4.75;;
20474;SDS011;10396;51.724;23.090;2022-08-19T10:04:25;9.70;;;5.07;;
20474;SDS011;10396;51.724;23.090;2022-08-19T10:07:13;11.80;;;4.63;;
20474;SDS011;10396;51.724;23.090;2022-08-19T10:09:40;14.75;;;4.60;;
20474;SDS011;10396;51.724;23.090;2022-08-19T10:12:08;12.75;;;4.57;;
20474;SDS011;10396;51.724;23.090;2022-08-19T10:14:36;10.10;;;4.50;;
20474;SDS011;10396;51.724;23.090;2022-08-19T10:17:05;8.75;;;4.10;;
20474;SDS011;10396;51.724;23.090;2022-08-19T10:19:32;9.32;;;4.22;;
20474;SDS011;10396;51.724;23.090;2022-08-19T10:22:05;9.55;;;4.38;;
20474;SDS011;10396;51.724;23.090;2022-08-19T10:24:33;10.88;;;4.30;;
20474;SDS011;10396;51.724;23.090;2022-08-19T10:27:01;10.45;;;4.15;;
20474;SDS011;10396;51.724;23.090;2022-08-19T10:29:31;7.20;;;3.92;;
20474;SDS011;10396;51.724;23.090;2022-08-19T10:32:00;9.85;;;4.07;;
20474;SDS011;10396;51.724;23.090;2022-08-19T10:34:29;9.63;;;4.10;;
20474;SDS011;10396;51.724;23.090;2022-08-19T10:36:57;10.40;;;4.10;;
20474;SDS011;10396;51.724;23.090;2022-08-19T10:39:25;8.88;;;4.10;;
20474;SDS011;10396;51.724;23.090;2022-08-19T10:41:54;11.02;;;4.90;;
20474;SDS011;10396;51.724;23.090;2022-08-19T10:44:23;10.55;;;4.40;;
20474;SDS011;10396;51.724;23.090;2022-08-19T10:46:50;10.57;;;4.38;;
20474;SDS011;10396;51.724;23.090;2022-08-19T10:49:18;9.85;;;4.10;;
20474;SDS011;10396;51.724;23.090;2022-08-19T10:51:47;10.50;;;4.28;;
20474;SDS011;10396;51.724;23.090;2022-08-19T10:54:32;11.18;;;4.45;;
20474;SDS011;10396;51.724;23.090;2022-08-19T10:57:17;7.90;;;4.00;;
20474;SDS011;10396;51.724;23.090;2022-08-19T10:59:45;10.20;;;3.90;;
20474;SDS011;10396;51.724;23.090;2022-08-19T11:02:12;10.07;;;4.38;;
20474;SDS011;10396;51.724;23.090;2022-08-19T11:04:40;10.60;;;4.72;;
20474;SDS011;10396;51.724;23.090;2022-08-19T11:07:09;9.65;;;4.30;;
20474;SDS011;10396;51.724;23.090;2022-08-19T11:09:38;9.20;;;4.32;;
20474;SDS011;10396;51.724;23.090;2022-08-19T11:12:07;9.65;;;4.20;;
20474;SDS011;10396;51.724;23.090;2022-08-19T11:14:35;11.00;;;4.20;;
20474;SDS011;10396;51.724;23.090;2022-08-19T11:17:03;8.68;;;3.92;;
20474;SDS011;10396;51.724;23.090;2022-08-19T11:19:32;11.75;;;4.20;;
20474;SDS011;10396;51.724;23.090;2022-08-19T11:21:59;9.95;;;4.22;;
20474;SDS011;10396;51.724;23.090;2022-08-19T11:24:29;10.15;;;4.07;;
20474;SDS011;10396;51.724;23.090;2022-08-19T11:27:00;9.52;;;4.18;;
20474;SDS011;10396;51.724;23.090;2022-08-19T11:29:30;9.40;;;3.95;;
20474;SDS011;10396;51.724;23.090;2022-08-19T11:31:57;12.35;;;4.05;;
20474;SDS011;10396;51.724;23.090;2022-08-19T11:34:27;12.15;;;4.72;;
20474;SDS011;10396;51.724;23.090;2022-08-19T11:36:55;9.45;;;4.18;;
20474;SDS011;10396;51.724;23.090;2022-08-19T11:39:24;12.00;;;3.85;;
20474;SDS011;10396;51.724;23.090;2022-08-19T11:41:54;13.32;;;4.50;;
20474;SDS011;10396;51.724;23.090;2022-08-19T11:44:22;11.25;;;4.15;;
20474;SDS011;10396;51.724;23.090;2022-08-19T11:46:50;12.13;;;4.25;;
20474;SDS011;10396;51.724;23.090;2022-08-19T11:49:18;8.40;;;3.83;;
20474;SDS011;10396;51.724;23.090;2022-08-19T11:51:46;11.23;;;4.30;;
20474;SDS011;10396;51.724;23.090;2022-08-19T11:54:15;11.73;;;4.25;;
20474;SDS011;10396;51.724;23.090;2022-08-19T11:56:44;13.57;;;4.40;;
20474;SDS011;10396;51.724;23.090;2022-08-19T11:59:14;10.13;;;3.90;;
20474;SDS011;10396;51.724;23.090;2022-08-19T12:01:42;12.73;;;4.50;;
20474;SDS011;10396;51.724;23.090;2022-08-19T12:04:10;11.70;;;4.18;;
20474;SDS011;10396;51.724;23.090;2022-08-19T12:06:38;13.27;;;3.97;;
20474;SDS011;10396;51.724;23.090;2022-08-19T12:09:07;11.43;;;4.40;;
20474;SDS011;10396;51.724;23.090;2022-08-19T12:11:36;11.05;;;3.80;;
20474;SDS011;10396;51.724;23.090;2022-08-19T12:14:03;8.05;;;3.80;;
20474;SDS011;10396;51.724;23.090;2022-08-19T12:16:32;12.45;;;4.10;;
20474;SDS011;10396;51.724;23.090;2022-08-19T12:19:02;13.50;;;4.00;;
20474;SDS011;10396;51.724;23.090;2022-08-19T12:21:31;13.35;;;4.25;;
20474;SDS011;10396;51.724;23.090;2022-08-19T12:24:00;8.20;;;4.00;;
20474;SDS011;10396;51.724;23.090;2022-08-19T12:26:28;9.35;;;3.70;;
20474;SDS011;10396;51.724;23.090;2022-08-19T12:28:56;12.45;;;4.22;;
20474;SDS011;10396;51.724;23.090;2022-08-19T12:31:25;7.70;;;3.55;;
20474;SDS011;10396;51.724;23.090;2022-08-19T12:33:55;8.68;;;3.80;;
20474;SDS011;10396;51.724;23.090;2022-08-19T12:36:23;13.95;;;3.80;;
20474;SDS011;10396;51.724;23.090;2022-08-19T12:38:51;8.15;;;3.75;;
20474;SDS011;10396;51.724;23.090;2022-08-19T12:41:19;8.90;;;3.65;;
20474;SDS011;10396;51.724;23.090;2022-08-19T12:43:48;14.18;;;3.78;;
20474;SDS011;10396;51.724;23.090;2022-08-19T12:46:16;9.98;;;3.60;;
20474;SDS011;10396;51.724;23.090;2022-08-19T12:48:44;9.88;;;3.40;;
20474;SDS011;10396;51.724;23.090;2022-08-19T12:51:14;8.43;;;3.42;;
20474;SDS011;10396;51.724;23.090;2022-08-19T12:53:44;10.90;;;4.00;;
20474;SDS011;10396;51.724;23.090;2022-08-19T12:56:12;13.93;;;3.70;;
20474;SDS011;10396;51.724;23.090;2022-08-19T12:58:41;9.20;;;3.95;;
20474;SDS011;10396;51.724;23.090;2022-08-19T13:01:09;11.10;;;3.65;;
20474;SDS011;10396;51.724;23.090;2022-08-19T13:03:38;13.13;;;4.00;;
20474;SDS011;10396;51.724;23.090;2022-08-19T13:06:06;9.20;;;3.97;;
20474;SDS011;10396;51.724;23.090;2022-08-19T13:08:35;10.75;;;3.45;;
20474;SDS011;10396;51.724;23.090;2022-08-19T13:11:08;12.93;;;3.28;;
20474;SDS011;10396;51.724;23.090;2022-08-19T13:13:38;7.88;;;3.17;;
20474;SDS011;10396;51.724;23.090;2022-08-19T13:16:07;11.50;;;3.40;;
20474;SDS011;10396;51.724;23.090;2022-08-19T13:18:35;16.80;;;3.25;;
20474;SDS011;10396;51.724;23.090;2022-08-19T13:21:03;10.27;;;3.20;;
20474;SDS011;10396;51.724;23.090;2022-08-19T13:23:31;10.93;;;3.00;;
20474;SDS011;10396;51.724;23.090;2022-08-19T13:26:01;9.55;;;3.13;;
20474;SDS011;10396;51.724;23.090;2022-08-19T13:28:30;12.98;;;4.10;;
20474;SDS011;10396;51.724;23.090;2022-08-19T13:31:19;10.55;;;3.40;;
20474;SDS011;10396;51.724;23.090;2022-08-19T13:34:06;13.25;;;3.50;;
20474;SDS011;10396;51.724;23.090;2022-08-19T13:36:34;8.65;;;3.13;;
20474;SDS011;10396;51.724;23.090;2022-08-19T13:39:02;8.57;;;3.38;;
20474;SDS011;10396;51.724;23.090;2022-08-19T13:41:31;9.00;;;3.38;;
20474;SDS011;10396;51.724;23.090;2022-08-19T13:43:59;11.15;;;3.55;;
20474;SDS011;10396;51.724;23.090;2022-08-19T13:46:27;9.10;;;3.35;;
20474;SDS011;10396;51.724;23.090;2022-08-19T13:48:55;10.55;;;3.25;;
20474;SDS011;10396;51.724;23.090;2022-08-19T13:51:23;11.95;;;3.15;;
20474;SDS011;10396;51.724;23.090;2022-08-19T13:53:51;13.30;;;3.45;;
20474;SDS011;10396;51.724;23.090;2022-08-19T13:56:19;10.32;;;3.30;;
20474;SDS011;10396;51.724;23.090;2022-08-19T13:58:48;10.27;;;3.42;;
20474;SDS011;10396;51.724;23.090;2022-08-19T14:01:18;12.50;;;3.25;;
20474;SDS011;10396;51.724;23.090;2022-08-19T14:03:47;13.18;;;3.60;;
20474;SDS011;10396;51.724;23.090;2022-08-19T14:06:14;11.70;;;3.55;;
20474;SDS011;10396;51.724;23.090;2022-08-19T14:08:42;11.40;;;3.45;;
20474;SDS011;10396;51.724;23.090;2022-08-19T14:11:09;13.52;;;3.47;;
20474;SDS011;10396;51.724;23.090;2022-08-19T14:13:37;8.75;;;3.40;;
20474;SDS011;10396;51.724;23.090;2022-08-19T14:16:09;9.38;;;3.42;;
20474;SDS011;10396;51.724;23.090;2022-08-19T14:18:38;9.55;;;3.30;;
20474;SDS011;10396;51.724;23.090;2022-08-19T14:21:06;9.93;;;3.30;;
20474;SDS011;10396;51.724;23.090;2022-08-19T14:23:33;10.85;;;3.40;;
20474;SDS011;10396;51.724;23.090;2022-08-19T14:26:05;12.32;;;3.45;;
20474;SDS011;10396;51.724;23.090;2022-08-19T14:28:33;8.65;;;3.45;;
20474;SDS011;10396;51.724;23.090;2022-08-19T14:31:00;8.48;;;3.30;;
20474;SDS011;10396;51.724;23.090;2022-08-19T14:33:29;10.80;;;3.28;;